sensor_id;sensor_type;location;lat;lon;timestamp;pressure;altitude;pressure_sealevel;temperature;humidity
26531;BME280;14201;43.188;24.160;2023-03-15T00:00:12;98454.69;;;5.36;63.27
26531;BME280;14201;43.188;24.160;2023-03-15T00:02:38;98460.63;;;5.33;62.84
26531;BME280;14201;43.188;24.160;2023-03-15T00:05:04;98465.56;;;5.29;63.67
26531;BME280;14201;43.188;24.160;2023-03-15T00:07:30;98456.50;;;5.18;63.35
26531;BME280;14201;43.188;24.160;2023-03-15T00:09:56;98462.72;;;4.84;64.50
26531;BME280;14201;43.188;24.160;2023-03-15T00:12:22;98463.38;;;4.80;64.66
26531;BME280;14201;43.188;24.160;2023-03-15T00:14:49;98467.13;;;4.86;64.79
26531;BME280;14201;43.188;24.160;2023-03-15T00:17:15;98455.66;;;4.80;64.42
26531;BME280;14201;43.188;24.160;2023-03-15T00:19:40;98463.66;;;4.86;64.21
26531;BME280;14201;43.188;24.160;2023-03-15T00:22:06;98459.03;;;4.79;64.82
26531;BME280;14201;43.188;24.160;2023-03-15T00:24:32;98459.06;;;4.61;64.56
26531;BME280;14201;43.188;24.160;2023-03-15T00:26:58;98440.28;;;4.63;64.83
26531;BME280;14201;43.188;24.160;2023-03-15T00:29:23;98444.91;;;4.70;63.78
26531;BME280;14201;43.188;24.160;2023-03-15T00:31:49;98437.94;;;5.07;62.76
26531;BME280;14201;43.188;24.160;2023-03-15T00:34:16;98435.56;;;5.11;62.64
26531;BME280;14201;43.188;24.160;2023-03-15T00:36:43;98429.25;;;5.05;62.78
26531;BME280;14201;43.188;24.160;2023-03-15T00:39:09;98431.84;;;5.05;63.67
26531;BME280;14201;43.188;24.160;2023-03-15T00:41:35;98426.19;;;4.74;65.50
26531;BME280;14201;43.188;24.160;2023-03-15T00:44:00;98421.44;;;4.84;64.33
26531;BME280;14201;43.188;24.160;2023-03-15T00:46:26;98421.59;;;4.87;64.07
26531;BME280;14201;43.188;24.160;2023-03-15T00:48:51;98425.47;;;4.97;64.04
26531;BME280;14201;43.188;24.160;2023-03-15T00:51:22;98413.50;;;4.99;64.18
26531;BME280;14201;43.188;24.160;2023-03-15T00:53:49;98422.91;;;4.98;63.96
26531;BME280;14201;43.188;24.160;2023-03-15T00:56:18;98414.09;;;5.12;63.95
26531;BME280;14201;43.188;24.160;2023-03-15T00:58:44;98409.34;;;5.22;62.97
26531;BME280;14201;43.188;24.160;2023-03-15T01:01:13;98423.81;;;5.18;63.14
26531;BME280;14201;43.188;24.160;2023-03-15T01:03:39;98418.72;;;5.20;63.16
26531;BME280;14201;43.188;24.160;2023-03-15T01:06:07;98413.22;;;5.12;62.63
26531;BME280;14201;43.188;24.160;2023-03-15T01:08:33;98417.03;;;5.20;62.77
26531;BME280;14201;43.188;24.160;2023-03-15T01:11:10;98413.34;;;5.15;63.48
26531;BME280;14201;43.188;24.160;2023-03-15T01:13:36;98407.44;;;5.37;62.25
26531;BME280;14201;43.188;24.160;2023-03-15T01:16:02;98412.63;;;5.39;62.20
26531;BME280;14201;43.188;24.160;2023-03-15T01:18:29;98407.22;;;5.32;61.97
26531;BME280;14201;43.188;24.160;2023-03-15T01:20:56;98403.31;;;5.42;61.56
26531;BME280;14201;43.188;24.160;2023-03-15T01:23:21;98403.06;;;5.36;62.32
26531;BME280;14201;43.188;24.160;2023-03-15T01:25:47;98387.22;;;4.88;63.75
26531;BME280;14201;43.188;24.160;2023-03-15T01:28:12;98391.81;;;4.37;65.66
26531;BME280;14201;43.188;24.160;2023-03-15T01:30:38;98411.91;;;4.63;64.63
26531;BME280;14201;43.188;24.160;2023-03-15T01:33:04;98416.00;;;4.78;64.52
26531;BME280;14201;43.188;24.160;2023-03-15T01:35:30;98406.44;;;4.75;63.91
26531;BME280;14201;43.188;24.160;2023-03-15T01:37:56;98388.59;;;4.80;64.14
26531;BME280;14201;43.188;24.160;2023-03-15T01:40:22;98419.19;;;5.11;63.49
26531;BME280;14201;43.188;24.160;2023-03-15T01:43:14;98409.06;;;5.16;63.10
26531;BME280;14201;43.188;24.160;2023-03-15T01:48:28;98416.88;;;4.98;63.69
26531;BME280;14201;43.188;24.160;2023-03-15T01:50:56;98403.78;;;4.73;64.31
26531;BME280;14201;43.188;24.160;2023-03-15T01:53:23;98405.16;;;4.65;64.59
26531;BME280;14201;43.188;24.160;2023-03-15T01:55:51;98414.91;;;4.72;64.89
26531;BME280;14201;43.188;24.160;2023-03-15T01:58:21;98409.22;;;4.60;65.17
26531;BME280;14201;43.188;24.160;2023-03-15T02:00:50;98386.69;;;4.56;64.56
26531;BME280;14201;43.188;24.160;2023-03-15T02:03:20;98409.91;;;4.76;64.41
26531;BME280;14201;43.188;24.160;2023-03-15T02:05:51;98412.75;;;4.82;64.25
26531;BME280;14201;43.188;24.160;2023-03-15T02:08:20;98415.06;;;4.76;65.44
26531;BME280;14201;43.188;24.160;2023-03-15T02:10:50;98413.44;;;4.78;65.36
26531;BME280;14201;43.188;24.160;2023-03-15T02:13:20;98410.59;;;4.53;64.82
26531;BME280;14201;43.188;24.160;2023-03-15T02:15:49;98406.72;;;4.81;63.73
26531;BME280;14201;43.188;24.160;2023-03-15T02:18:18;98409.22;;;4.80;63.70
26531;BME280;14201;43.188;24.160;2023-03-15T02:21:06;98428.22;;;4.82;64.17
26531;BME280;14201;43.188;24.160;2023-03-15T02:23:34;98413.84;;;4.67;64.49
26531;BME280;14201;43.188;24.160;2023-03-15T02:28:53;98412.94;;;4.67;64.99
26531;BME280;14201;43.188;24.160;2023-03-15T02:31:20;98414.47;;;4.63;64.65
26531;BME280;14201;43.188;24.160;2023-03-15T02:33:49;98415.16;;;4.59;64.37
26531;BME280;14201;43.188;24.160;2023-03-15T02:36:20;98419.59;;;4.62;64.12
26531;BME280;14201;43.188;24.160;2023-03-15T02:38:47;98419.13;;;4.70;63.64
26531;BME280;14201;43.188;24.160;2023-03-15T02:41:20;98421.91;;;4.75;63.55
26531;BME280;14201;43.188;24.160;2023-03-15T02:43:50;98412.34;;;4.72;63.68
26531;BME280;14201;43.188;24.160;2023-03-15T02:46:18;98408.38;;;4.61;64.15
26531;BME280;14201;43.188;24.160;2023-03-15T02:48:45;98407.81;;;4.49;63.53
26531;BME280;14201;43.188;24.160;2023-03-15T02:51:18;98410.41;;;4.49;63.84
26531;BME280;14201;43.188;24.160;2023-03-15T02:53:44;98405.31;;;4.50;64.11
26531;BME280;14201;43.188;24.160;2023-03-15T02:56:09;98405.94;;;4.45;64.77
26531;BME280;14201;43.188;24.160;2023-03-15T02:58:35;98412.19;;;4.32;64.91
26531;BME280;14201;43.188;24.160;2023-03-15T03:01:01;98408.91;;;4.34;65.18
26531;BME280;14201;43.188;24.160;2023-03-15T03:03:26;98404.78;;;4.20;65.02
26531;BME280;14201;43.188;24.160;2023-03-15T03:05:52;98409.81;;;4.17;65.95
26531;BME280;14201;43.188;24.160;2023-03-15T03:08:17;98411.84;;;4.24;65.40
26531;BME280;14201;43.188;24.160;2023-03-15T03:10:43;98411.25;;;4.30;65.57
26531;BME280;14201;43.188;24.160;2023-03-15T03:13:08;98412.00;;;4.27;65.18
26531;BME280;14201;43.188;24.160;2023-03-15T03:15:34;98410.97;;;4.24;65.42
26531;BME280;14201;43.188;24.160;2023-03-15T03:17:59;98390.38;;;4.06;65.77
26531;BME280;14201;43.188;24.160;2023-03-15T03:20:25;98402.41;;;4.07;66.11
26531;BME280;14201;43.188;24.160;2023-03-15T03:22:51;98412.69;;;4.05;65.04
26531;BME280;14201;43.188;24.160;2023-03-15T03:25:20;98414.06;;;3.99;64.87
26531;BME280;14201;43.188;24.160;2023-03-15T03:27:46;98410.03;;;4.04;65.78
26531;BME280;14201;43.188;24.160;2023-03-15T03:30:13;98406.84;;;4.09;65.90
26531;BME280;14201;43.188;24.160;2023-03-15T03:32:39;98414.44;;;4.06;66.14
26531;BME280;14201;43.188;24.160;2023-03-15T03:35:06;98415.53;;;4.11;66.16
26531;BME280;14201;43.188;24.160;2023-03-15T03:37:32;98402.13;;;4.01;66.83
26531;BME280;14201;43.188;24.160;2023-03-15T03:39:57;98403.53;;;4.12;66.52
26531;BME280;14201;43.188;24.160;2023-03-15T03:42:23;98406.28;;;4.15;67.11
26531;BME280;14201;43.188;24.160;2023-03-15T03:44:49;98402.78;;;4.14;66.48
26531;BME280;14201;43.188;24.160;2023-03-15T03:47:15;98405.47;;;3.98;65.58
26531;BME280;14201;43.188;24.160;2023-03-15T03:49:40;98400.81;;;3.91;66.37
26531;BME280;14201;43.188;24.160;2023-03-15T03:52:06;98398.31;;;3.92;65.94
26531;BME280;14201;43.188;24.160;2023-03-15T03:54:31;98407.38;;;3.84;66.59
26531;BME280;14201;43.188;24.160;2023-03-15T03:56:57;98403.97;;;3.85;67.04
26531;BME280;14201;43.188;24.160;2023-03-15T03:59:23;98398.53;;;3.79;67.69
26531;BME280;14201;43.188;24.160;2023-03-15T04:01:48;98403.59;;;3.78;67.62
26531;BME280;14201;43.188;24.160;2023-03-15T04:04:15;98400.16;;;3.77;67.95
26531;BME280;14201;43.188;24.160;2023-03-15T04:06:41;98387.19;;;3.75;68.58
26531;BME280;14201;43.188;24.160;2023-03-15T04:09:11;98389.94;;;3.79;68.63
26531;BME280;14201;43.188;24.160;2023-03-15T04:11:39;98401.56;;;3.88;68.31
26531;BME280;14201;43.188;24.160;2023-03-15T04:14:11;98395.16;;;3.80;67.97
26531;BME280;14201;43.188;24.160;2023-03-15T04:16:37;98391.38;;;3.73;68.89
26531;BME280;14201;43.188;24.160;2023-03-15T04:19:03;98383.81;;;3.77;68.28
26531;BME280;14201;43.188;24.160;2023-03-15T04:21:29;98382.28;;;3.80;68.41
26531;BME280;14201;43.188;24.160;2023-03-15T04:23:59;98373.66;;;3.80;68.95
26531;BME280;14201;43.188;24.160;2023-03-15T04:26:26;98386.31;;;3.75;69.01
26531;BME280;14201;43.188;24.160;2023-03-15T04:28:53;98381.72;;;3.33;70.70
26531;BME280;14201;43.188;24.160;2023-03-15T04:31:19;98383.84;;;3.42;70.75
26531;BME280;14201;43.188;24.160;2023-03-15T04:33:45;98384.81;;;3.62;69.73
26531;BME280;14201;43.188;24.160;2023-03-15T04:36:11;98391.88;;;3.66;69.25
26531;BME280;14201;43.188;24.160;2023-03-15T04:38:46;98374.31;;;3.58;69.86
26531;BME280;14201;43.188;24.160;2023-03-15T04:41:13;98380.13;;;3.71;69.56
26531;BME280;14201;43.188;24.160;2023-03-15T04:43:38;98362.63;;;3.64;69.01
26531;BME280;14201;43.188;24.160;2023-03-15T04:46:04;98384.56;;;3.92;68.77
26531;BME280;14201;43.188;24.160;2023-03-15T04:48:30;98386.81;;;3.68;69.25
26531;BME280;14201;43.188;24.160;2023-03-15T04:50:56;98381.84;;;3.71;69.14
26531;BME280;14201;43.188;24.160;2023-03-15T04:53:21;98381.09;;;3.91;68.66
26531;BME280;14201;43.188;24.160;2023-03-15T04:55:47;98359.16;;;3.82;68.49
26531;BME280;14201;43.188;24.160;2023-03-15T04:58:12;98380.97;;;3.88;69.08
26531;BME280;14201;43.188;24.160;2023-03-15T05:00:38;98382.13;;;3.95;69.29
26531;BME280;14201;43.188;24.160;2023-03-15T05:03:03;98385.59;;;3.96;68.80
26531;BME280;14201;43.188;24.160;2023-03-15T05:05:32;98388.81;;;4.09;68.26
26531;BME280;14201;43.188;24.160;2023-03-15T05:07:58;98395.88;;;4.13;69.81
26531;BME280;14201;43.188;24.160;2023-03-15T05:10:23;98374.69;;;4.01;69.72
26531;BME280;14201;43.188;24.160;2023-03-15T05:12:50;98393.44;;;4.17;69.50
26531;BME280;14201;43.188;24.160;2023-03-15T05:15:16;98386.53;;;4.16;69.10
26531;BME280;14201;43.188;24.160;2023-03-15T05:17:41;98370.16;;;3.96;69.20
26531;BME280;14201;43.188;24.160;2023-03-15T05:20:11;98391.28;;;4.26;68.84
26531;BME280;14201;43.188;24.160;2023-03-15T05:22:38;98385.47;;;4.48;68.60
26531;BME280;14201;43.188;24.160;2023-03-15T05:25:03;98359.84;;;4.33;68.76
26531;BME280;14201;43.188;24.160;2023-03-15T05:27:29;98387.44;;;4.36;69.86
26531;BME280;14201;43.188;24.160;2023-03-15T05:29:58;98383.81;;;4.50;70.42
26531;BME280;14201;43.188;24.160;2023-03-15T05:32:23;98376.91;;;4.49;70.94
26531;BME280;14201;43.188;24.160;2023-03-15T05:34:51;98375.69;;;4.60;70.42
26531;BME280;14201;43.188;24.160;2023-03-15T05:37:21;98379.50;;;4.68;69.37
26531;BME280;14201;43.188;24.160;2023-03-15T05:39:46;98382.59;;;4.61;70.18
26531;BME280;14201;43.188;24.160;2023-03-15T05:42:12;98383.78;;;4.68;69.87
26531;BME280;14201;43.188;24.160;2023-03-15T05:44:37;98379.63;;;4.71;68.52
26531;BME280;14201;43.188;24.160;2023-03-15T05:47:03;98377.44;;;4.61;69.01
26531;BME280;14201;43.188;24.160;2023-03-15T05:49:29;98378.78;;;4.53;68.75
26531;BME280;14201;43.188;24.160;2023-03-15T05:51:55;98361.75;;;4.37;69.54
26531;BME280;14201;43.188;24.160;2023-03-15T05:54:20;98373.22;;;4.44;69.21
26531;BME280;14201;43.188;24.160;2023-03-15T05:56:46;98365.56;;;4.45;70.12
26531;BME280;14201;43.188;24.160;2023-03-15T05:59:12;98361.63;;;4.53;70.05
26531;BME280;14201;43.188;24.160;2023-03-15T06:01:37;98369.75;;;4.43;70.73
26531;BME280;14201;43.188;24.160;2023-03-15T06:04:03;98372.31;;;4.24;72.37
26531;BME280;14201;43.188;24.160;2023-03-15T06:06:28;98368.03;;;4.62;72.22
26531;BME280;14201;43.188;24.160;2023-03-15T06:08:54;98365.56;;;4.84;71.32
26531;BME280;14201;43.188;24.160;2023-03-15T06:11:20;98362.53;;;4.73;71.54
26531;BME280;14201;43.188;24.160;2023-03-15T06:13:46;98372.00;;;4.94;70.85
26531;BME280;14201;43.188;24.160;2023-03-15T06:16:11;98374.19;;;5.04;71.31
26531;BME280;14201;43.188;24.160;2023-03-15T06:18:37;98365.94;;;5.13;71.19
26531;BME280;14201;43.188;24.160;2023-03-15T06:21:03;98347.00;;;5.12;71.62
26531;BME280;14201;43.188;24.160;2023-03-15T06:23:28;98366.44;;;5.24;71.94
26531;BME280;14201;43.188;24.160;2023-03-15T06:25:54;98363.25;;;5.31;71.47
26531;BME280;14201;43.188;24.160;2023-03-15T06:28:19;98353.16;;;5.57;70.79
26531;BME280;14201;43.188;24.160;2023-03-15T06:30:45;98343.38;;;5.70;70.01
26531;BME280;14201;43.188;24.160;2023-03-15T06:33:10;98321.19;;;5.97;69.99
26531;BME280;14201;43.188;24.160;2023-03-15T06:35:36;98345.38;;;6.44;68.89
26531;BME280;14201;43.188;24.160;2023-03-15T06:38:01;98329.81;;;6.66;69.08
26531;BME280;14201;43.188;24.160;2023-03-15T06:40:27;98335.22;;;6.97;67.18
26531;BME280;14201;43.188;24.160;2023-03-15T06:42:53;98335.41;;;7.27;65.18
26531;BME280;14201;43.188;24.160;2023-03-15T06:45:19;98329.81;;;7.67;64.55
26531;BME280;14201;43.188;24.160;2023-03-15T06:47:44;98337.56;;;7.95;62.94
26531;BME280;14201;43.188;24.160;2023-03-15T06:50:10;98327.56;;;8.34;62.86
26531;BME280;14201;43.188;24.160;2023-03-15T06:52:36;98328.91;;;8.50;62.81
26531;BME280;14201;43.188;24.160;2023-03-15T06:55:03;98324.44;;;8.75;60.36
26531;BME280;14201;43.188;24.160;2023-03-15T06:57:29;98323.75;;;9.14;60.65
26531;BME280;14201;43.188;24.160;2023-03-15T06:59:55;98314.16;;;9.44;60.06
26531;BME280;14201;43.188;24.160;2023-03-15T07:02:21;98302.59;;;9.68;58.26
26531;BME280;14201;43.188;24.160;2023-03-15T07:04:47;98306.69;;;9.95;57.28
26531;BME280;14201;43.188;24.160;2023-03-15T07:07:14;98305.53;;;10.20;57.24
26531;BME280;14201;43.188;24.160;2023-03-15T07:09:39;98324.53;;;10.55;56.13
26531;BME280;14201;43.188;24.160;2023-03-15T07:12:05;98318.09;;;10.80;55.05
26531;BME280;14201;43.188;24.160;2023-03-15T07:14:32;98320.16;;;10.98;53.09
26531;BME280;14201;43.188;24.160;2023-03-15T07:16:57;98315.09;;;11.06;55.56
26531;BME280;14201;43.188;24.160;2023-03-15T07:19:22;98312.97;;;11.32;53.49
26531;BME280;14201;43.188;24.160;2023-03-15T07:21:48;98309.84;;;11.52;53.40
26531;BME280;14201;43.188;24.160;2023-03-15T07:24:13;98319.06;;;11.85;49.61
26531;BME280;14201;43.188;24.160;2023-03-15T07:26:39;98304.75;;;12.14;47.56
26531;BME280;14201;43.188;24.160;2023-03-15T07:29:04;98303.47;;;12.50;48.48
26531;BME280;14201;43.188;24.160;2023-03-15T07:31:30;98301.09;;;12.69;47.55
26531;BME280;14201;43.188;24.160;2023-03-15T07:33:55;98302.31;;;13.00;46.59
26531;BME280;14201;43.188;24.160;2023-03-15T07:36:21;98307.63;;;13.08;45.86
26531;BME280;14201;43.188;24.160;2023-03-15T07:38:47;98304.31;;;13.26;46.51
26531;BME280;14201;43.188;24.160;2023-03-15T07:41:12;98301.31;;;13.77;45.49
26531;BME280;14201;43.188;24.160;2023-03-15T07:43:37;98292.09;;;14.35;44.73
26531;BME280;14201;43.188;24.160;2023-03-15T07:46:03;98289.66;;;14.70;44.43
26531;BME280;14201;43.188;24.160;2023-03-15T07:48:29;98292.13;;;14.41;43.89
26531;BME280;14201;43.188;24.160;2023-03-15T07:50:55;98284.31;;;14.53;44.49
26531;BME280;14201;43.188;24.160;2023-03-15T07:53:20;98287.94;;;14.80;44.83
26531;BME280;14201;43.188;24.160;2023-03-15T07:55:46;98288.03;;;15.23;43.32
26531;BME280;14201;43.188;24.160;2023-03-15T07:58:12;98289.81;;;15.58;44.05
26531;BME280;14201;43.188;24.160;2023-03-15T08:00:37;98286.34;;;15.84;40.49
26531;BME280;14201;43.188;24.160;2023-03-15T08:03:03;98282.81;;;15.66;42.12
26531;BME280;14201;43.188;24.160;2023-03-15T08:05:29;98279.31;;;16.01;41.63
26531;BME280;14201;43.188;24.160;2023-03-15T08:07:55;98275.72;;;16.42;42.13
26531;BME280;14201;43.188;24.160;2023-03-15T08:10:20;98283.56;;;16.51;40.24
26531;BME280;14201;43.188;24.160;2023-03-15T08:12:46;98284.47;;;16.50;39.44
26531;BME280;14201;43.188;24.160;2023-03-15T08:15:12;98284.44;;;16.53;38.83
26531;BME280;14201;43.188;24.160;2023-03-15T08:17:37;98285.28;;;16.59;39.69
26531;BME280;14201;43.188;24.160;2023-03-15T08:20:03;98275.66;;;16.62;39.67
26531;BME280;14201;43.188;24.160;2023-03-15T08:22:29;98273.81;;;16.78;39.92
26531;BME280;14201;43.188;24.160;2023-03-15T08:24:55;98268.53;;;16.90;39.15
26531;BME280;14201;43.188;24.160;2023-03-15T08:27:22;98274.66;;;16.91;38.87
26531;BME280;14201;43.188;24.160;2023-03-15T08:29:47;98283.44;;;16.93;38.25
26531;BME280;14201;43.188;24.160;2023-03-15T08:32:12;98282.44;;;17.11;38.17
26531;BME280;14201;43.188;24.160;2023-03-15T08:34:38;98280.63;;;17.25;38.83
26531;BME280;14201;43.188;24.160;2023-03-15T08:37:03;98281.56;;;17.10;37.68
26531;BME280;14201;43.188;24.160;2023-03-15T08:39:29;98273.00;;;16.59;38.06
26531;BME280;14201;43.188;24.160;2023-03-15T08:41:54;98268.69;;;16.47;38.56
26531;BME280;14201;43.188;24.160;2023-03-15T08:44:20;98255.53;;;16.52;38.10
26531;BME280;14201;43.188;24.160;2023-03-15T08:46:45;98271.19;;;16.81;38.96
26531;BME280;14201;43.188;24.160;2023-03-15T08:49:10;98269.28;;;17.11;36.97
26531;BME280;14201;43.188;24.160;2023-03-15T08:51:36;98264.94;;;17.07;35.92
26531;BME280;14201;43.188;24.160;2023-03-15T08:54:01;98262.31;;;17.04;35.59
26531;BME280;14201;43.188;24.160;2023-03-15T08:56:29;98263.13;;;17.17;38.06
26531;BME280;14201;43.188;24.160;2023-03-15T08:58:56;98263.88;;;17.34;37.76
26531;BME280;14201;43.188;24.160;2023-03-15T09:01:21;98262.88;;;17.49;36.04
26531;BME280;14201;43.188;24.160;2023-03-15T09:03:47;98249.69;;;17.50;36.23
26531;BME280;14201;43.188;24.160;2023-03-15T09:06:13;98258.47;;;17.52;37.63
26531;BME280;14201;43.188;24.160;2023-03-15T09:08:38;98252.19;;;17.67;37.64
26531;BME280;14201;43.188;24.160;2023-03-15T09:11:03;98249.41;;;17.83;37.68
26531;BME280;14201;43.188;24.160;2023-03-15T09:13:29;98230.66;;;18.17;38.12
26531;BME280;14201;43.188;24.160;2023-03-15T09:15:55;98226.00;;;18.42;37.60
26531;BME280;14201;43.188;24.160;2023-03-15T09:18:21;98233.06;;;18.38;37.78
26531;BME280;14201;43.188;24.160;2023-03-15T09:20:48;98242.75;;;18.35;37.00
26531;BME280;14201;43.188;24.160;2023-03-15T09:23:13;98242.84;;;18.27;36.41
26531;BME280;14201;43.188;24.160;2023-03-15T09:25:39;98250.00;;;18.16;37.16
26531;BME280;14201;43.188;24.160;2023-03-15T09:28:05;98249.66;;;18.46;37.40
26531;BME280;14201;43.188;24.160;2023-03-15T09:30:31;98244.34;;;18.49;36.41
26531;BME280;14201;43.188;24.160;2023-03-15T09:32:57;98256.88;;;18.29;36.64
26531;BME280;14201;43.188;24.160;2023-03-15T09:35:22;98256.00;;;18.28;35.88
26531;BME280;14201;43.188;24.160;2023-03-15T09:37:48;98250.22;;;17.94;34.83
26531;BME280;14201;43.188;24.160;2023-03-15T09:40:38;98258.22;;;17.79;35.94
26531;BME280;14201;43.188;24.160;2023-03-15T09:50:48;98269.41;;;16.88;39.76
26531;BME280;14201;43.188;24.160;2023-03-15T09:53:17;98271.06;;;17.06;39.66
26531;BME280;14201;43.188;24.160;2023-03-15T09:55:45;98269.22;;;17.20;40.41
26531;BME280;14201;43.188;24.160;2023-03-15T09:58:14;98269.28;;;17.09;39.93
26531;BME280;14201;43.188;24.160;2023-03-15T10:00:45;98268.56;;;16.81;40.16
26531;BME280;14201;43.188;24.160;2023-03-15T10:03:18;98266.00;;;16.67;41.45
26531;BME280;14201;43.188;24.160;2023-03-15T10:05:46;98270.19;;;17.07;41.25
26531;BME280;14201;43.188;24.160;2023-03-15T10:08:13;98274.34;;;17.40;41.13
26531;BME280;14201;43.188;24.160;2023-03-15T10:10:43;98280.16;;;17.81;39.75
26531;BME280;14201;43.188;24.160;2023-03-15T10:18:31;98273.78;;;18.06;37.21
26531;BME280;14201;43.188;24.160;2023-03-15T10:21:02;98263.28;;;18.05;37.93
26531;BME280;14201;43.188;24.160;2023-03-15T10:23:35;98271.13;;;18.11;37.28
26531;BME280;14201;43.188;24.160;2023-03-15T10:26:03;98267.56;;;18.15;37.71
26531;BME280;14201;43.188;24.160;2023-03-15T10:28:30;98274.38;;;18.35;38.89
26531;BME280;14201;43.188;24.160;2023-03-15T10:31:08;98272.59;;;18.40;37.92
26531;BME280;14201;43.188;24.160;2023-03-15T10:33:37;98272.84;;;18.15;38.17
26531;BME280;14201;43.188;24.160;2023-03-15T10:36:36;98265.16;;;17.95;37.09
26531;BME280;14201;43.188;24.160;2023-03-15T10:38:55;98271.34;;;17.83;38.49
26531;BME280;14201;43.188;24.160;2023-03-15T10:41:38;98265.28;;;17.78;38.01
26531;BME280;14201;43.188;24.160;2023-03-15T10:44:25;98265.22;;;17.81;38.21
26531;BME280;14201;43.188;24.160;2023-03-15T10:47:00;98260.81;;;17.88;37.82
26531;BME280;14201;43.188;24.160;2023-03-15T10:49:33;98265.22;;;17.83;38.36
26531;BME280;14201;43.188;24.160;2023-03-15T10:51:59;98268.78;;;17.79;38.23
26531;BME280;14201;43.188;24.160;2023-03-15T10:54:24;98267.25;;;17.51;38.29
26531;BME280;14201;43.188;24.160;2023-03-15T10:56:58;98263.75;;;17.49;39.52
26531;BME280;14201;43.188;24.160;2023-03-15T10:59:25;98266.38;;;17.48;40.24
26531;BME280;14201;43.188;24.160;2023-03-15T11:01:53;98262.03;;;17.42;40.49
26531;BME280;14201;43.188;24.160;2023-03-15T11:04:20;98263.69;;;17.54;40.72
26531;BME280;14201;43.188;24.160;2023-03-15T11:09:12;98263.50;;;17.77;39.77
26531;BME280;14201;43.188;24.160;2023-03-15T11:14:34;98266.38;;;17.48;38.73
26531;BME280;14201;43.188;24.160;2023-03-15T11:17:00;98266.59;;;17.20;39.53
26531;BME280;14201;43.188;24.160;2023-03-15T11:19:27;98259.66;;;17.07;39.97
26531;BME280;14201;43.188;24.160;2023-03-15T11:21:54;98259.75;;;16.81;40.08
26531;BME280;14201;43.188;24.160;2023-03-15T11:24:25;98264.16;;;16.86;40.48
26531;BME280;14201;43.188;24.160;2023-03-15T11:26:51;98261.56;;;16.77;40.02
26531;BME280;14201;43.188;24.160;2023-03-15T11:29:23;98262.44;;;16.74;40.52
26531;BME280;14201;43.188;24.160;2023-03-15T11:31:49;98262.53;;;16.58;42.12
26531;BME280;14201;43.188;24.160;2023-03-15T11:34:59;98270.34;;;16.73;41.72
26531;BME280;14201;43.188;24.160;2023-03-15T11:37:05;98272.97;;;16.71;42.00
26531;BME280;14201;43.188;24.160;2023-03-15T11:39:40;98278.16;;;16.93;42.68
26531;BME280;14201;43.188;24.160;2023-03-15T11:42:09;98273.81;;;16.81;42.84
26531;BME280;14201;43.188;24.160;2023-03-15T11:44:38;98284.31;;;16.87;42.42
26531;BME280;14201;43.188;24.160;2023-03-15T11:49:36;98286.16;;;16.64;41.64
26531;BME280;14201;43.188;24.160;2023-03-15T11:52:05;98287.94;;;16.62;41.98
26531;BME280;14201;43.188;24.160;2023-03-15T11:54:30;98292.31;;;16.53;42.27
26531;BME280;14201;43.188;24.160;2023-03-15T11:57:00;98285.22;;;16.72;42.49
26531;BME280;14201;43.188;24.160;2023-03-15T11:59:31;98283.34;;;17.04;43.55
26531;BME280;14201;43.188;24.160;2023-03-15T12:04:36;98271.91;;;17.11;41.25
26531;BME280;14201;43.188;24.160;2023-03-15T12:07:55;98273.69;;;17.12;40.78
26531;BME280;14201;43.188;24.160;2023-03-15T12:09:52;98279.00;;;17.00;41.95
26531;BME280;14201;43.188;24.160;2023-03-15T12:17:37;98275.53;;;16.88;42.21
26531;BME280;14201;43.188;24.160;2023-03-15T12:20:10;98279.03;;;16.97;41.76
26531;BME280;14201;43.188;24.160;2023-03-15T12:22:39;98284.25;;;17.03;41.50
26531;BME280;14201;43.188;24.160;2023-03-15T12:27:38;98285.78;;;17.33;42.19
26531;BME280;14201;43.188;24.160;2023-03-15T12:30:05;98280.53;;;17.33;40.76
26531;BME280;14201;43.188;24.160;2023-03-15T12:32:35;98277.06;;;17.29;40.48
26531;BME280;14201;43.188;24.160;2023-03-15T12:35:10;98275.44;;;17.10;40.74
26531;BME280;14201;43.188;24.160;2023-03-15T12:37:43;98269.31;;;17.06;41.12
26531;BME280;14201;43.188;24.160;2023-03-15T12:48:25;98280.72;;;17.10;40.82
26531;BME280;14201;43.188;24.160;2023-03-15T12:50:37;98270.16;;;17.13;41.17
26531;BME280;14201;43.188;24.160;2023-03-15T12:55:37;98271.19;;;16.84;41.14
26531;BME280;14201;43.188;24.160;2023-03-15T12:58:05;98264.22;;;16.66;41.51
26531;BME280;14201;43.188;24.160;2023-03-15T13:00:33;98265.13;;;16.64;41.88
26531;BME280;14201;43.188;24.160;2023-03-15T13:03:10;98255.47;;;16.64;41.28
26531;BME280;14201;43.188;24.160;2023-03-15T13:08:22;98252.97;;;16.38;42.18
26531;BME280;14201;43.188;24.160;2023-03-15T13:10:52;98254.69;;;16.47;41.60
26531;BME280;14201;43.188;24.160;2023-03-15T13:24:11;98265.06;;;16.76;41.60
26531;BME280;14201;43.188;24.160;2023-03-15T13:29:26;98265.97;;;16.83;40.93
26531;BME280;14201;43.188;24.160;2023-03-15T13:34:37;98257.22;;;16.71;41.19
26531;BME280;14201;43.188;24.160;2023-03-15T13:37:03;98262.47;;;16.71;40.50
26531;BME280;14201;43.188;24.160;2023-03-15T13:39:29;98264.31;;;16.43;41.47
26531;BME280;14201;43.188;24.160;2023-03-15T13:41:56;98262.59;;;16.41;41.65
26531;BME280;14201;43.188;24.160;2023-03-15T13:44:22;98263.47;;;16.40;41.82
26531;BME280;14201;43.188;24.160;2023-03-15T13:46:48;98264.34;;;16.40;41.35
26531;BME280;14201;43.188;24.160;2023-03-15T13:49:13;98261.72;;;16.34;41.26
26531;BME280;14201;43.188;24.160;2023-03-15T13:51:39;98269.63;;;16.40;41.75
26531;BME280;14201;43.188;24.160;2023-03-15T13:54:06;98271.38;;;16.32;41.94
26531;BME280;14201;43.188;24.160;2023-03-15T13:56:34;98269.63;;;16.31;41.95
26531;BME280;14201;43.188;24.160;2023-03-15T13:59:00;98267.88;;;16.31;41.69
26531;BME280;14201;43.188;24.160;2023-03-15T14:01:26;98269.66;;;16.11;42.46